Briefing drone pour Coursan

Rechercher une autre localisation

Conditions de vol :


Nous sommes le : Dimanche 25 juillet 2021
Il est 15:03 UTC (17:03 LT)

Lever de soleil : 04:04 UTC (06:04 LT)
Coucher de soleil : 19:43 UTC (21:43 LT)

Météo

L'essentiel des conditions de vol

VIGILANCE MÉTÉO FRANCE - Aude (11)
Vigilance Jaune : Orages
METAR de LFMU
LFMU 251500Z AUTO 33013KT 300V360 CAVOK 29/14 Q1010 NOSIG

Date d'émission: 25/07/2021
Heure d'émission: 15:00 UTC
Vent: 330° (variable du 300° au 360°) pour 13 KT (24 km/h)
Visibilité horizontale: > 10 km
Plafond : Plafond et visibilité OK (CAVOK)
Température: 29 °C
Point de rosée: 14 °C
Humidité: 40%
Pression (QNH): 1010 hPa
Conditions: Pas de changement dans les 2 heures (NOSIG)
TAF de LFMU
LFMU 251400Z 2515/2615 33015KT CAVOK TEMPO 2600/2608 32005KT

Conditions prévues :

Heure d'émission : Bulletin éffectué le 25 à 15:00 UTC
Prévision : Valide du 25 a 15:00 UTC au 26 a 15:00 UTC
Vent : 330° pour 15 KT (28 km/h)
Visibilité : > 10 km

Temporairement :

Prévision : Valide du 26 a 00:00 UTC au 26 a 08:00 UTC
Vent : 320° pour 5 KT (9 km/h)
WEBCAM POUR COURSAN

Réglementation

Voler en sécurité

CARTES AERONAUTIQUE 1/500.000
CARTES VAC (LFMU)
SUP AIP




Chargement des AIP...
NOTAM (COURSAN + Terrain à proximité / FIR )




Chargement des NOTAMS...
CONTACT PREFECTURE 11


Avertissement : Les données mises à disposition sont indicatives. Oxygène Drone ne pourra être tenu responsable de dégâts causés aux biens et aux personnes.